Time;durP1;ratioP1;P1;durP2;ratioP2;P2;SDS_P1;SDS_P2;PMS_P1;PMS_P2;Temp;Humidity;BMP_temperature;BMP_pressure;BME280_temperature;BME280_humidity;BME280_pressure;Samples;Min_cycle;Max_cycle;Signal;HPM_P1;HPM_P2
2024/02/16 00:00:48;;;;;;;29.30;21.57;;;;;21.70;99928.00;;;;2066274;28;20265;-58
2024/02/16 00:01:49;;;;;;;27.20;20.27;;;;;21.70;99930.00;;;;2066831;28;20218;-58
2024/02/16 00:02:49;;;;;;;30.90;21.67;;;;;21.70;99931.00;;;;2069414;28;20264;-58
2024/02/16 00:03:49;;;;;;;26.33;20.43;;;;;21.70;99933.00;;;;2065300;28;20219;-58
2024/02/16 00:04:49;;;;;;;29.33;21.00;;;;;21.70;99929.00;;;;2064600;28;20275;-58
2024/02/16 00:05:51;;;;;;;25.83;19.67;;;;;21.70;99927.00;;;;2069919;28;20321;-58
2024/02/16 00:06:51;;;;;;;29.10;20.90;;;;;21.70;99927.00;;;;2067405;28;20308;-58
2024/02/16 00:07:52;;;;;;;29.90;20.10;;;;;21.70;99930.00;;;;2070084;28;20597;-58
2024/02/16 00:08:52;;;;;;;24.70;18.90;;;;;21.70;99925.00;;;;2063765;28;20649;-58
2024/02/16 00:09:52;;;;;;;30.27;20.67;;;;;21.70;99921.00;;;;2062066;28;20627;-58
2024/02/16 00:10:52;;;;;;;27.30;19.87;;;;;21.60;99931.00;;;;2070881;28;20592;-58
2024/02/16 00:11:53;;;;;;;26.53;20.07;;;;;21.70;99931.00;;;;2070561;28;20778;-58
2024/02/16 00:12:53;;;;;;;26.20;18.37;;;;;21.60;99932.00;;;;2070098;28;21359;-58
2024/02/16 00:13:53;;;;;;;25.73;18.70;;;;;21.60;99928.00;;;;2076687;28;20589;-58
2024/02/16 00:14:54;;;;;;;25.60;19.37;;;;;21.60;99934.00;;;;2057265;28;20225;-58
2024/02/16 00:15:54;;;;;;;22.37;17.30;;;;;21.60;99928.00;;;;2062571;28;20238;-57
2024/02/16 00:16:55;;;;;;;22.90;17.50;;;;;21.70;99931.00;;;;2067130;28;20307;-58
2024/02/16 00:17:55;;;;;;;27.73;18.90;;;;;21.60;99930.00;;;;2070251;28;20305;-59
2024/02/16 00:18:55;;;;;;;27.50;19.37;;;;;21.60;99934.00;;;;2073780;28;20245;-57
2024/02/16 00:19:57;;;;;;;24.53;17.93;;;;;21.60;99931.00;;;;2062249;28;20218;-57
2024/02/16 00:20:57;;;;;;;24.38;17.35;;;;;21.60;99939.00;;;;2063996;28;20280;-59
2024/02/16 00:21:57;;;;;;;27.17;19.03;;;;;21.60;99945.00;;;;2068633;28;20221;-59
2024/02/16 00:22:58;;;;;;;25.20;17.83;;;;;21.60;99939.00;;;;2070135;28;20218;-57
2024/02/16 00:23:58;;;;;;;25.20;18.07;;;;;21.60;99935.00;;;;2070803;28;20210;-58
2024/02/16 00:24:59;;;;;;;28.30;20.67;;;;;21.60;99937.00;;;;2059529;28;20237;-59
2024/02/16 00:25:59;;;;;;;21.37;16.50;;;;;21.60;99940.00;;;;2070100;28;20226;-58
2024/02/16 00:27:00;;;;;;;28.10;18.70;;;;;21.60;99941.00;;;;2068548;28;20316;-59
2024/02/16 00:28:00;;;;;;;25.77;17.77;;;;;21.60;99941.00;;;;2063412;28;20280;-58
2024/02/16 00:29:00;;;;;;;24.20;17.33;;;;;21.60;99948.00;;;;2068744;28;20460;-58
2024/02/16 00:30:02;;;;;;;26.97;18.37;;;;;21.60;99939.00;;;;2067316;28;20213;-59
2024/02/16 00:31:02;;;;;;;22.88;16.20;;;;;21.60;99944.00;;;;2068921;28;20249;-58
2024/02/16 00:32:03;;;;;;;25.43;17.70;;;;;21.60;99946.00;;;;2069241;28;20222;-58
2024/02/16 00:33:03;;;;;;;23.60;17.07;;;;;21.60;99940.00;;;;2068425;28;20984;-58
2024/02/16 00:34:04;;;;;;;22.70;16.00;;;;;21.60;99949.00;;;;2065451;28;20218;-59
2024/02/16 00:35:04;;;;;;;23.83;17.60;;;;;21.60;99940.00;;;;2060827;28;20288;-58
2024/02/16 00:36:05;;;;;;;23.83;17.33;;;;;21.60;99951.00;;;;2068435;28;20228;-58
2024/02/16 00:37:09;;;;;;;21.17;15.97;;;;;21.60;99948.00;;;;2068719;28;20233;-59
2024/02/16 00:38:09;;;;;;;23.10;16.77;;;;;21.60;99942.00;;;;2061365;28;20222;-58
2024/02/16 00:39:10;;;;;;;23.20;16.60;;;;;21.60;99943.00;;;;2069118;28;20757;-59
2024/02/16 00:40:10;;;;;;;22.20;16.20;;;;;21.60;99952.00;;;;2060856;28;20586;-58
2024/02/16 00:41:18;;;;;;;19.93;15.13;;;;;21.60;99959.00;;;;2067751;28;20591;-58
2024/02/16 00:42:18;;;;;;;21.70;15.60;;;;;21.60;99949.00;;;;2063587;28;20825;-58
2024/02/16 00:43:19;;;;;;;20.07;15.03;;;;;21.60;99949.00;;;;2069032;28;20237;-58
2024/02/16 00:44:19;;;;;;;20.10;15.37;;;;;21.60;99954.00;;;;2070449;28;20207;-58
2024/02/16 00:45:19;;;;;;;22.20;14.90;;;;;21.60;99947.00;;;;2059189;28;20230;-58
2024/02/16 00:46:22;;;;;;;18.80;14.10;;;;;21.60;99953.00;;;;2069870;28;20237;-58
2024/02/16 00:47:23;;;;;;;23.90;16.42;;;;;21.60;99945.00;;;;2069430;28;20256;-58
2024/02/16 00:48:24;;;;;;;18.27;14.40;;;;;21.50;99944.00;;;;2071365;28;20293;-58
2024/02/16 00:49:24;;;;;;;19.07;13.77;;;;;21.50;99944.00;;;;2072051;28;20461;-59
2024/02/16 00:50:25;;;;;;;19.23;13.43;;;;;21.50;99947.00;;;;2065554;28;20228;-58
2024/02/16 00:51:25;;;;;;;20.05;14.15;;;;;21.50;99939.00;;;;2070327;28;20217;-58
2024/02/16 00:52:26;;;;;;;20.57;15.10;;;;;21.50;99947.00;;;;2070564;28;20678;-58
2024/02/16 00:53:26;;;;;;;20.60;14.23;;;;;21.50;99952.00;;;;2067027;28;20695;-59
2024/02/16 00:54:27;;;;;;;18.50;13.20;;;;;21.50;99949.00;;;;2064223;28;20241;-59
2024/02/16 00:55:27;;;;;;;19.63;14.27;;;;;21.50;99940.00;;;;2059423;28;20222;-58
2024/02/16 00:56:27;;;;;;;17.73;13.70;;;;;21.50;99952.00;;;;2070297;28;20215;-58
2024/02/16 00:57:28;;;;;;;17.70;12.77;;;;;21.50;99951.00;;;;2068593;28;20281;-58
2024/02/16 00:58:28;;;;;;;17.60;12.60;;;;;21.50;99955.00;;;;2067811;28;20214;-59
2024/02/16 00:59:29;;;;;;;15.63;13.00;;;;;21.50;99952.00;;;;2070235;28;20216;-59
2024/02/16 01:00:30;;;;;;;17.63;13.10;;;;;21.50;99951.00;;;;2059955;28;20225;-59
2024/02/16 01:01:30;;;;;;;20.10;13.73;;;;;21.50;99949.00;;;;2070322;28;20214;-58
2024/02/16 01:02:31;;;;;;;16.50;11.70;;;;;21.50;99949.00;;;;2065884;28;20472;-58
2024/02/16 01:03:32;;;;;;;17.30;12.93;;;;;21.50;99956.00;;;;2062297;28;20234;-58
2024/02/16 01:04:35;;;;;;;19.90;14.77;;;;;21.50;99948.00;;;;2064414;28;20213;-58
2024/02/16 01:05:35;;;;;;;19.35;14.65;;;;;21.50;99952.00;;;;2063964;28;20574;-58
2024/02/16 01:06:36;;;;;;;16.87;12.43;;;;;21.50;99945.00;;;;2073653;28;20229;-59
2024/02/16 01:07:36;;;;;;;15.90;11.73;;;;;21.50;99944.00;;;;2063255;28;20223;-58
2024/02/16 01:08:37;;;;;;;19.87;13.20;;;;;21.50;99951.00;;;;2065195;28;20809;-58
2024/02/16 01:09:37;;;;;;;15.10;11.97;;;;;21.50;99948.00;;;;2064795;28;21203;-60
2024/02/16 01:10:37;;;;;;;16.60;12.70;;;;;21.50;99944.00;;;;2064147;28;20314;-58
2024/02/16 01:11:40;;;;;;;16.80;12.60;;;;;21.50;99946.00;;;;2067866;28;20222;-58
2024/02/16 01:12:40;;;;;;;17.15;12.57;;;;;21.50;99951.00;;;;2070197;28;20868;-59
2024/02/16 01:13:40;;;;;;;15.23;12.20;;;;;21.50;99947.00;;;;2070328;28;20214;-58
2024/02/16 01:14:41;;;;;;;17.90;12.87;;;;;21.40;99943.00;;;;2059758;28;20226;-58
2024/02/16 01:15:41;;;;;;;17.83;12.70;;;;;21.50;99968.00;;;;2070769;28;20249;-57
2024/02/16 01:16:41;;;;;;;17.37;11.23;;;;;21.50;99939.00;;;;2069417;28;20218;-58
2024/02/16 01:17:42;;;;;;;16.23;11.20;;;;;21.50;99938.00;;;;2068837;28;20698;-58
2024/02/16 01:18:42;;;;;;;17.20;12.27;;;;;21.50;99947.00;;;;2064686;28;20241;-58
2024/02/16 01:19:42;;;;;;;16.73;12.10;;;;;21.50;99930.00;;;;2058910;28;20238;-58
2024/02/16 01:20:43;;;;;;;15.30;11.77;;;;;21.50;99934.00;;;;2069928;28;20222;-58
2024/02/16 01:21:44;;;;;;;16.10;12.30;;;;;21.50;99934.00;;;;2067937;28;20214;-58
2024/02/16 01:22:45;;;;;;;17.50;12.15;;;;;21.40;99940.00;;;;2069490;28;20264;-58
2024/02/16 01:23:45;;;;;;;16.57;11.77;;;;;21.50;99935.00;;;;2064263;28;20683;-62
2024/02/16 01:24:45;;;;;;;20.87;13.30;;;;;21.40;99934.00;;;;2059860;28;20708;-59
2024/02/16 01:25:46;;;;;;;16.00;12.27;;;;;21.40;99938.00;;;;2081930;28;20700;-59
2024/02/16 01:26:46;;;;;;;16.10;11.57;;;;;21.40;99942.00;;;;2077117;28;20216;-59
2024/02/16 01:27:47;;;;;;;16.73;11.37;;;;;21.40;99938.00;;;;2068870;28;20218;-59
2024/02/16 01:28:48;;;;;;;14.70;10.93;;;;;21.40;99945.00;;;;2069323;28;20225;-58
2024/02/16 01:29:49;;;;;;;13.13;10.40;;;;;21.40;99932.00;;;;2060165;28;20210;-58
2024/02/16 01:30:49;;;;;;;15.93;11.10;;;;;21.40;99930.00;;;;2069772;28;20214;-58
2024/02/16 01:31:50;;;;;;;15.88;10.98;;;;;21.40;99932.00;;;;2067906;28;20241;-59
2024/02/16 01:32:51;;;;;;;15.87;12.00;;;;;21.40;99929.00;;;;2069866;28;20210;-59
2024/02/16 01:33:52;;;;;;;15.53;9.90;;;;;21.40;99928.00;;;;2068910;28;20245;-58
2024/02/16 01:34:52;;;;;;;15.43;10.93;;;;;21.40;99933.00;;;;2065536;28;20239;-57
2024/02/16 01:35:53;;;;;;;14.90;10.57;;;;;21.40;99933.00;;;;2072160;28;20275;-57
2024/02/16 01:36:53;;;;;;;16.13;10.90;;;;;21.40;99937.00;;;;2063352;28;20246;-58
2024/02/16 01:37:53;;;;;;;15.00;9.97;;;;;21.40;99934.00;;;;2066651;28;20225;-57
2024/02/16 01:38:54;;;;;;;14.00;9.97;;;;;21.40;99921.00;;;;2069874;28;20214;-58
2024/02/16 01:39:54;;;;;;;14.30;10.53;;;;;21.40;99926.00;;;;2057900;28;20222;-56
2024/02/16 01:40:54;;;;;;;16.37;11.30;;;;;21.40;99924.00;;;;2068940;28;20218;-57
2024/02/16 01:41:54;;;;;;;13.47;10.00;;;;;21.40;99923.00;;;;2070182;28;20210;-58
2024/02/16 01:42:55;;;;;;;14.07;10.30;;;;;21.40;99929.00;;;;2069310;28;20253;-57
2024/02/16 01:43:55;;;;;;;14.87;10.53;;;;;21.40;99924.00;;;;2068904;28;20249;-57
2024/02/16 01:44:55;;;;;;;14.67;10.70;;;;;21.40;99920.00;;;;2059341;28;20217;-57
2024/02/16 01:45:57;;;;;;;14.23;9.90;;;;;21.40;99919.00;;;;2068458;28;20222;-58
2024/02/16 01:46:58;;;;;;;13.55;9.38;;;;;21.40;99951.00;;;;2067849;28;20214;-58
2024/02/16 01:47:59;;;;;;;15.30;10.97;;;;;21.40;99910.00;;;;2060386;28;20582;-57
2024/02/16 01:49:00;;;;;;;13.90;9.63;;;;;21.40;99918.00;;;;2066846;28;20694;-58
2024/02/16 01:50:00;;;;;;;14.10;10.63;;;;;21.40;99913.00;;;;2062403;28;20256;-59
2024/02/16 01:51:02;;;;;;;13.33;9.73;;;;;21.40;99916.00;;;;2083398;28;20219;-57
2024/02/16 01:52:03;;;;;;;13.73;10.10;;;;;21.40;99915.00;;;;2081783;28;20660;-58
2024/02/16 01:53:03;;;;;;;14.20;9.75;;;;;21.40;99896.00;;;;2068374;28;20221;-57
2024/02/16 01:54:03;;;;;;;12.13;9.60;;;;;21.40;99917.00;;;;2069135;28;20233;-58
2024/02/16 01:55:04;;;;;;;13.97;10.30;;;;;21.40;99917.00;;;;2057398;28;20322;-59
2024/02/16 01:56:05;;;;;;;15.43;9.93;;;;;21.40;99917.00;;;;2063145;28;20230;-57
2024/02/16 01:57:07;;;;;;;12.93;9.70;;;;;21.40;99913.00;;;;2061070;28;20645;-58
2024/02/16 01:58:07;;;;;;;11.45;9.10;;;;;21.40;99915.00;;;;2069064;28;20659;-58
2024/02/16 01:59:08;;;;;;;12.97;10.00;;;;;21.40;99921.00;;;;2068947;28;20229;-57
2024/02/16 02:00:08;;;;;;;14.50;10.10;;;;;21.30;99910.00;;;;2058480;28;20288;-57
2024/02/16 02:01:09;;;;;;;13.73;8.60;;;;;21.40;99914.00;;;;2077101;28;20229;-58
2024/02/16 02:02:09;;;;;;;12.40;9.50;;;;;21.40;99913.00;;;;2069580;28;20224;-57
2024/02/16 02:03:09;;;;;;;13.13;9.60;;;;;21.30;99908.00;;;;2068630;28;20233;-58
2024/02/16 02:04:10;;;;;;;14.03;9.80;;;;;21.40;99905.00;;;;2068223;28;20261;-59
2024/02/16 02:05:11;;;;;;;11.67;7.90;;;;;21.30;99901.00;;;;2050961;28;20226;-57
2024/02/16 02:06:12;;;;;;;13.20;9.07;;;;;21.30;99907.00;;;;2050129;28;20219;-57
2024/02/16 02:07:15;;;;;;;12.53;9.20;;;;;21.30;99913.00;;;;2073660;28;20673;-57
2024/02/16 02:08:15;;;;;;;14.15;9.05;;;;;21.30;99914.00;;;;2070375;28;20284;-57
2024/02/16 02:09:16;;;;;;;11.07;8.03;;;;;21.30;99907.00;;;;2065689;28;20308;-59
2024/02/16 02:10:16;;;;;;;12.47;9.50;;;;;21.30;99906.00;;;;2060285;28;20300;-57
2024/02/16 02:11:16;;;;;;;12.63;9.23;;;;;21.30;99912.00;;;;2062770;28;20226;-57
2024/02/16 02:12:18;;;;;;;13.07;9.60;;;;;21.30;99904.00;;;;2068927;28;20222;-57
2024/02/16 02:13:19;;;;;;;14.00;8.60;;;;;21.30;99902.00;;;;2055759;28;20210;-57
2024/02/16 02:14:22;;;;;;;11.80;9.30;;;;;21.30;99934.00;;;;2067752;28;20280;-57
2024/02/16 02:15:22;;;;;;;13.90;8.65;;;;;21.30;99899.00;;;;2059624;28;20211;-58
2024/02/16 02:16:23;;;;;;;13.90;9.07;;;;;21.30;99912.00;;;;2067978;28;20897;-58
2024/02/16 02:17:24;;;;;;;15.67;9.50;;;;;21.30;99910.00;;;;2074784;28;21000;-56
2024/02/16 02:18:24;;;;;;;13.00;8.47;;;;;21.30;99907.00;;;;2068375;28;20226;-57
2024/02/16 02:19:25;;;;;;;12.07;8.10;;;;;21.30;99902.00;;;;2072914;28;20220;-57
2024/02/16 02:20:25;;;;;;;11.23;7.97;;;;;21.30;99903.00;;;;2059808;28;20213;-59
2024/02/16 02:21:26;;;;;;;12.70;8.60;;;;;21.30;99894.00;;;;2068812;28;20640;-57
2024/02/16 02:22:27;;;;;;;13.43;9.87;;;;;21.30;99911.00;;;;2068507;28;20244;-57
2024/02/16 02:23:27;;;;;;;13.30;8.82;;;;;21.30;99898.00;;;;2062975;28;20210;-58
2024/02/16 02:24:27;;;;;;;12.00;8.60;;;;;21.30;99902.00;;;;2069360;28;20241;-58
2024/02/16 02:25:28;;;;;;;11.80;8.03;;;;;21.30;99898.00;;;;2065642;28;20236;-58
2024/02/16 02:26:29;;;;;;;12.47;8.20;;;;;21.30;99893.00;;;;2076873;28;20248;-58
2024/02/16 02:27:29;;;;;;;10.43;8.27;;;;;21.30;99887.00;;;;2067245;28;21050;-58
2024/02/16 02:28:29;;;;;;;13.17;8.30;;;;;21.30;99885.00;;;;2065366;28;20229;-59
2024/02/16 02:29:30;;;;;;;12.17;8.37;;;;;21.30;99887.00;;;;2063005;28;20214;-59
2024/02/16 02:30:30;;;;;;;13.50;8.60;;;;;21.30;99879.00;;;;2058141;28;20214;-58
2024/02/16 02:31:30;;;;;;;10.80;7.83;;;;;21.30;99889.00;;;;2068788;28;20216;-57
2024/02/16 02:32:31;;;;;;;11.50;8.00;;;;;21.30;99889.00;;;;2069472;28;20206;-58
2024/02/16 02:33:31;;;;;;;10.93;8.10;;;;;21.30;99886.00;;;;2068297;28;20750;-57
2024/02/16 02:34:31;;;;;;;10.90;7.93;;;;;21.30;99892.00;;;;2070425;28;20296;-59
2024/02/16 02:35:32;;;;;;;11.20;8.40;;;;;21.30;99881.00;;;;2061383;28;20218;-57
2024/02/16 02:36:32;;;;;;;11.17;8.43;;;;;21.30;99882.00;;;;2069363;28;20297;-57
2024/02/16 02:37:33;;;;;;;11.33;7.97;;;;;21.30;99889.00;;;;2067401;28;20318;-57
2024/02/16 02:38:33;;;;;;;10.33;8.20;;;;;21.30;99886.00;;;;2069282;28;20214;-58
2024/02/16 02:39:34;;;;;;;11.10;8.50;;;;;21.30;99884.00;;;;2069194;28;20218;-57
2024/02/16 02:40:34;;;;;;;10.60;7.90;;;;;21.20;99891.00;;;;2058901;28;20214;-58
2024/02/16 02:41:34;;;;;;;11.00;7.83;;;;;21.30;99889.00;;;;2069121;28;20698;-58
2024/02/16 02:42:35;;;;;;;10.03;7.77;;;;;21.30;99892.00;;;;2067967;28;20782;-59
2024/02/16 02:43:35;;;;;;;10.80;7.80;;;;;21.20;99894.00;;;;2069241;28;20593;-58
2024/02/16 02:44:36;;;;;;;9.97;7.70;;;;;21.30;99901.00;;;;2069129;28;20214;-58
2024/02/16 02:45:36;;;;;;;9.47;7.20;;;;;21.20;99905.00;;;;2057175;28;20597;-58
2024/02/16 02:46:37;;;;;;;9.30;7.10;;;;;21.20;99899.00;;;;2068905;28;20332;-58
2024/02/16 02:47:37;;;;;;;11.20;7.87;;;;;21.20;99898.00;;;;2067450;28;20210;-59
2024/02/16 02:48:37;;;;;;;11.67;7.80;;;;;21.20;99905.00;;;;2068845;28;20225;-58
2024/02/16 02:49:37;;;;;;;10.33;7.70;;;;;21.20;99904.00;;;;2069997;28;20213;-57
2024/02/16 02:50:38;;;;;;;11.97;7.60;;;;;21.20;99896.00;;;;2064195;28;20210;-59
2024/02/16 02:51:38;;;;;;;12.17;8.50;;;;;21.20;99899.00;;;;2069218;28;20232;-58
2024/02/16 02:52:38;;;;;;;10.40;7.70;;;;;21.20;99896.00;;;;2068999;28;20379;-57
2024/02/16 02:53:39;;;;;;;10.77;7.80;;;;;21.20;99891.00;;;;2069447;28;20301;-58
2024/02/16 02:54:39;;;;;;;10.80;6.93;;;;;21.20;99886.00;;;;2056371;28;20312;-60
2024/02/16 02:55:39;;;;;;;9.07;6.97;;;;;21.20;99882.00;;;;2062784;28;20211;-57
2024/02/16 02:56:40;;;;;;;11.17;7.97;;;;;21.20;99889.00;;;;2068790;28;20206;-57
2024/02/16 02:57:40;;;;;;;9.43;7.20;;;;;21.20;99886.00;;;;2068042;28;20206;-57
2024/02/16 02:58:41;;;;;;;9.70;6.60;;;;;21.20;99878.00;;;;2069332;28;20233;-57
2024/02/16 02:59:41;;;;;;;10.50;7.63;;;;;21.20;99876.00;;;;2058780;28;20357;-59
2024/02/16 03:00:41;;;;;;;10.33;6.87;;;;;21.20;99883.00;;;;2069066;28;20582;-58
2024/02/16 03:01:42;;;;;;;9.63;6.30;;;;;21.20;99875.00;;;;2068760;28;20206;-59
2024/02/16 03:02:43;;;;;;;9.30;6.57;;;;;21.20;99878.00;;;;2069319;28;20206;-57
2024/02/16 03:03:44;;;;;;;8.88;7.05;;;;;21.20;99869.00;;;;2068624;28;20704;-57
2024/02/16 03:04:44;;;;;;;9.77;6.83;;;;;21.20;99869.00;;;;2056429;28;20215;-56
2024/02/16 03:05:44;;;;;;;11.10;7.17;;;;;21.20;99870.00;;;;2061184;28;20248;-56
2024/02/16 03:06:45;;;;;;;8.17;6.70;;;;;21.20;99873.00;;;;2066255;28;20229;-57
2024/02/16 03:07:45;;;;;;;9.40;6.20;;;;;21.20;99866.00;;;;2067873;28;20700;-58
2024/02/16 03:08:45;;;;;;;9.27;6.60;;;;;21.20;99863.00;;;;2068682;28;20473;-58
2024/02/16 03:09:46;;;;;;;9.90;7.20;;;;;21.20;99873.00;;;;2059383;28;20280;-58
2024/02/16 03:10:46;;;;;;;9.73;7.47;;;;;20.80;99868.00;;;;2068831;28;20248;-57
2024/02/16 03:11:47;;;;;;;9.57;6.43;;;;;21.20;99860.00;;;;2068883;28;20222;-57
2024/02/16 03:12:49;;;;;;;8.07;6.47;;;;;21.20;99867.00;;;;2065904;28;20566;-57
2024/02/16 03:13:49;;;;;;;9.85;6.55;;;;;21.20;99875.00;;;;2062672;28;20251;-58
2024/02/16 03:14:50;;;;;;;8.90;6.80;;;;;21.20;99873.00;;;;2055118;28;20583;-59
2024/02/16 03:15:50;;;;;;;11.07;6.53;;;;;21.20;99867.00;;;;2068545;28;20224;-59
2024/02/16 03:16:50;;;;;;;10.00;7.07;;;;;21.20;99867.00;;;;2068963;28;20222;-58
2024/02/16 03:17:51;;;;;;;9.10;6.23;;;;;20.80;99859.00;;;;2067366;28;20250;-57
2024/02/16 03:18:52;;;;;;;9.27;6.73;;;;;21.20;99854.00;;;;2064973;28;20225;-58
2024/02/16 03:19:52;;;;;;;9.40;6.68;;;;;21.10;99851.00;;;;2054290;28;20276;-57
2024/02/16 03:20:53;;;;;;;9.13;6.20;;;;;21.20;99852.00;;;;2067329;28;20247;-57
2024/02/16 03:21:54;;;;;;;9.55;6.43;;;;;21.20;99861.00;;;;2064921;28;20211;-57
2024/02/16 03:22:55;;;;;;;9.90;6.27;;;;;21.20;99858.00;;;;2064892;28;20218;-58
2024/02/16 03:23:56;;;;;;;9.88;7.00;;;;;21.20;99867.00;;;;2067415;28;20214;-62
2024/02/16 03:24:56;;;;;;;11.70;6.87;;;;;21.20;99859.00;;;;2057548;28;20247;-60
2024/02/16 03:25:56;;;;;;;8.63;6.33;;;;;21.20;99853.00;;;;2069018;28;20240;-60
2024/02/16 03:26:57;;;;;;;7.90;5.77;;;;;21.20;99859.00;;;;2067196;28;20256;-58
2024/02/16 03:27:57;;;;;;;10.27;6.93;;;;;21.10;99852.00;;;;2068570;28;20225;-60
2024/02/16 03:28:57;;;;;;;9.80;6.63;;;;;21.20;99871.00;;;;2069087;28;20214;-60
2024/02/16 03:29:57;;;;;;;8.33;6.40;;;;;21.10;99858.00;;;;2058322;28;20218;-59
2024/02/16 03:30:58;;;;;;;9.43;5.90;;;;;21.20;99854.00;;;;2072008;28;20295;-57
2024/02/16 03:31:59;;;;;;;7.60;5.87;;;;;21.10;99856.00;;;;2072532;28;20218;-58
2024/02/16 03:32:59;;;;;;;8.33;5.23;;;;;21.10;99859.00;;;;2069717;28;20207;-58
2024/02/16 03:34:00;;;;;;;9.20;6.83;;;;;21.10;99849.00;;;;2070929;28;20578;-57
2024/02/16 03:35:00;;;;;;;8.83;6.00;;;;;21.10;99852.00;;;;2060358;28;20680;-57
2024/02/16 03:36:01;;;;;;;7.30;5.30;;;;;21.20;99860.00;;;;2070815;28;20210;-58
2024/02/16 03:37:02;;;;;;;8.35;6.03;;;;;21.10;99860.00;;;;2065094;28;20360;-57
2024/02/16 03:38:03;;;;;;;8.50;5.87;;;;;21.10;99856.00;;;;2070348;28;20214;-57
2024/02/16 03:39:03;;;;;;;8.60;5.50;;;;;21.10;99846.00;;;;2070138;28;20226;-57
2024/02/16 03:40:05;;;;;;;9.50;5.90;;;;;21.10;99851.00;;;;2060384;28;20239;-57
2024/02/16 03:41:06;;;;;;;8.10;6.28;;;;;21.10;99854.00;;;;2070566;28;20221;-58
2024/02/16 03:42:06;;;;;;;9.13;5.80;;;;;21.10;99857.00;;;;2067358;28;20237;-57
2024/02/16 03:43:06;;;;;;;8.03;5.80;;;;;21.10;99858.00;;;;2065278;28;20222;-57
2024/02/16 03:44:07;;;;;;;9.33;6.10;;;;;21.10;99858.00;;;;2070662;28;20241;-58
2024/02/16 03:45:07;;;;;;;6.60;5.60;;;;;21.10;99858.00;;;;2058632;28;20224;-59
2024/02/16 03:46:08;;;;;;;7.37;5.47;;;;;21.10;99854.00;;;;2070859;28;20928;-57
2024/02/16 03:47:08;;;;;;;8.20;5.67;;;;;21.10;99859.00;;;;2067642;28;20585;-59
2024/02/16 03:48:09;;;;;;;9.40;6.40;;;;;21.10;99854.00;;;;2069534;28;20214;-58
2024/02/16 03:49:10;;;;;;;7.50;5.50;;;;;21.10;99856.00;;;;2069632;28;20228;-58
2024/02/16 03:50:10;;;;;;;7.05;4.68;;;;;21.10;99858.00;;;;2061151;28;20360;-57
2024/02/16 03:51:11;;;;;;;9.00;6.17;;;;;21.10;99864.00;;;;2070266;28;20368;-57
2024/02/16 03:52:11;;;;;;;8.10;5.47;;;;;21.10;99855.00;;;;2070106;28;20218;-59
2024/02/16 03:53:12;;;;;;;7.63;5.33;;;;;21.10;99854.00;;;;2069211;28;20749;-58
2024/02/16 03:54:12;;;;;;;7.90;5.33;;;;;21.10;99849.00;;;;2069658;28;20217;-57
2024/02/16 03:55:12;;;;;;;8.10;5.57;;;;;21.10;99850.00;;;;2065382;28;20218;-57
2024/02/16 03:56:18;;;;;;;9.27;5.10;;;;;21.10;99857.00;;;;2078601;28;20252;-57
2024/02/16 03:57:18;;;;;;;6.60;5.00;;;;;21.10;99858.00;;;;2062427;28;20269;-59
2024/02/16 03:58:19;;;;;;;8.10;5.13;;;;;21.10;99858.00;;;;2064548;28;20276;-57
2024/02/16 03:59:19;;;;;;;8.00;5.83;;;;;21.10;99858.00;;;;2069792;28;20225;-56
2024/02/16 04:00:20;;;;;;;8.90;6.00;;;;;21.10;99861.00;;;;2060821;28;20229;-58
2024/02/16 04:01:20;;;;;;;7.43;5.30;;;;;21.10;99866.00;;;;2069537;28;20226;-57
2024/02/16 04:02:22;;;;;;;6.95;5.10;;;;;21.10;99862.00;;;;2078066;28;20448;-58
2024/02/16 04:03:22;;;;;;;6.97;4.73;;;;;21.10;99859.00;;;;2068685;28;20218;-58
2024/02/16 04:04:22;;;;;;;6.70;4.90;;;;;21.10;99853.00;;;;2063705;28;20229;-57
2024/02/16 04:05:23;;;;;;;7.20;5.57;;;;;21.10;99858.00;;;;2060072;28;20226;-58
2024/02/16 04:06:23;;;;;;;8.20;5.10;;;;;21.10;99861.00;;;;2070152;28;20240;-58
2024/02/16 04:07:23;;;;;;;7.00;5.13;;;;;21.10;99867.00;;;;2069268;28;20222;-56
2024/02/16 04:08:24;;;;;;;8.87;5.87;;;;;21.10;99865.00;;;;2069294;28;20225;-58
2024/02/16 04:09:24;;;;;;;7.03;4.80;;;;;21.10;99866.00;;;;2070400;28;20250;-57
2024/02/16 04:10:24;;;;;;;6.73;5.03;;;;;21.10;99858.00;;;;2055209;28;20220;-58
2024/02/16 04:11:25;;;;;;;7.67;4.90;;;;;21.10;99863.00;;;;2070199;28;20218;-57
2024/02/16 04:12:25;;;;;;;6.00;4.40;;;;;21.10;99857.00;;;;2070160;28;20657;-57
2024/02/16 04:13:26;;;;;;;7.00;4.90;;;;;21.10;99858.00;;;;2068913;28;20276;-58
2024/02/16 04:14:26;;;;;;;7.00;4.40;;;;;21.10;99859.00;;;;2078487;28;20583;-58
2024/02/16 04:15:27;;;;;;;5.93;4.10;;;;;21.10;99856.00;;;;2060077;28;20253;-59
2024/02/16 04:16:28;;;;;;;7.53;5.47;;;;;21.10;99852.00;;;;2069898;28;20941;-58
2024/02/16 04:17:28;;;;;;;6.65;4.60;;;;;21.10;99856.00;;;;2062396;28;20587;-58
2024/02/16 04:18:28;;;;;;;8.60;4.77;;;;;21.10;99859.00;;;;2071008;28;20345;-59
2024/02/16 04:19:29;;;;;;;7.03;4.20;;;;;21.10;99857.00;;;;2070605;28;20222;-58
2024/02/16 04:20:29;;;;;;;6.97;4.90;;;;;21.10;99851.00;;;;2059780;28;20221;-58
2024/02/16 04:21:29;;;;;;;7.40;5.47;;;;;21.00;99853.00;;;;2070364;28;20706;-59
2024/02/16 04:22:30;;;;;;;5.93;4.40;;;;;21.00;99858.00;;;;2067628;28;20219;-59
2024/02/16 04:23:30;;;;;;;6.10;4.47;;;;;21.10;99845.00;;;;2074531;28;20295;-59
2024/02/16 04:24:31;;;;;;;6.87;5.00;;;;;21.10;99860.00;;;;2070077;28;20749;-58
2024/02/16 04:25:31;;;;;;;6.90;4.77;;;;;21.00;99860.00;;;;2059086;28;20230;-59
2024/02/16 04:26:31;;;;;;;6.97;4.43;;;;;21.00;99853.00;;;;2070602;28;20230;-58
2024/02/16 04:27:32;;;;;;;6.73;4.67;;;;;21.00;99853.00;;;;2068157;28;20232;-58
2024/02/16 04:28:32;;;;;;;6.60;4.23;;;;;21.00;99856.00;;;;2070416;28;20230;-58
2024/02/16 04:29:32;;;;;;;8.13;5.10;;;;;21.10;99888.00;;;;2069461;28;20245;-59
2024/02/16 04:30:33;;;;;;;6.17;4.70;;;;;21.00;99869.00;;;;2057867;28;21023;-63
2024/02/16 04:31:33;;;;;;;6.33;4.53;;;;;21.00;99860.00;;;;2070506;28;20229;-63
2024/02/16 04:32:33;;;;;;;6.07;4.30;;;;;21.00;99860.00;;;;2068855;28;20236;-59
2024/02/16 04:33:34;;;;;;;8.00;4.53;;;;;21.00;99850.00;;;;2070174;28;20249;-59
2024/02/16 04:34:34;;;;;;;6.93;4.60;;;;;21.00;99859.00;;;;2073529;28;20222;-59
2024/02/16 04:35:34;;;;;;;6.37;4.77;;;;;21.00;99857.00;;;;2060733;28;20373;-59
2024/02/16 04:36:35;;;;;;;5.97;4.33;;;;;21.00;99853.00;;;;2069778;28;20233;-58
2024/02/16 04:37:36;;;;;;;6.27;4.47;;;;;21.00;99859.00;;;;2069283;28;20549;-58
2024/02/16 04:38:36;;;;;;;5.68;4.18;;;;;21.00;99856.00;;;;2066856;28;20280;-58
2024/02/16 04:39:36;;;;;;;5.57;3.97;;;;;21.00;99854.00;;;;2069167;28;20260;-58
2024/02/16 04:40:37;;;;;;;6.47;4.30;;;;;21.00;99852.00;;;;2059884;28;20214;-59
2024/02/16 04:41:38;;;;;;;6.57;4.63;;;;;21.00;99853.00;;;;2069158;28;20203;-58
2024/02/16 04:42:40;;;;;;;6.78;4.20;;;;;21.00;99863.00;;;;2070207;28;20289;-58
2024/02/16 04:43:40;;;;;;;5.35;3.72;;;;;21.00;99860.00;;;;2067440;28;20218;-58
2024/02/16 04:44:41;;;;;;;6.67;4.40;;;;;21.00;99863.00;;;;2060309;28;20588;-58
2024/02/16 04:45:41;;;;;;;5.83;3.63;;;;;21.00;99864.00;;;;2069987;28;20230;-60
2024/02/16 04:46:41;;;;;;;6.20;4.30;;;;;21.00;99874.00;;;;2069260;28;20206;-58
2024/02/16 04:47:42;;;;;;;5.30;3.57;;;;;21.00;99877.00;;;;2069090;28;20215;-58
2024/02/16 04:48:42;;;;;;;5.33;4.07;;;;;21.00;99870.00;;;;2069258;28;20209;-58
2024/02/16 04:49:43;;;;;;;6.20;4.37;;;;;20.60;99871.00;;;;2060710;28;20214;-58
2024/02/16 04:50:43;;;;;;;5.50;4.40;;;;;21.00;99871.00;;;;2069893;28;20218;-59
2024/02/16 04:51:44;;;;;;;5.97;4.30;;;;;21.00;99869.00;;;;2069565;28;20464;-58
2024/02/16 04:52:44;;;;;;;5.80;4.17;;;;;21.00;99862.00;;;;2070306;28;20214;-58
2024/02/16 04:53:44;;;;;;;5.70;3.60;;;;;20.60;99871.00;;;;2069168;28;20223;-58
2024/02/16 04:54:45;;;;;;;6.17;4.07;;;;;21.00;99873.00;;;;2060957;28;20249;-58
2024/02/16 04:55:45;;;;;;;7.13;4.30;;;;;21.00;99869.00;;;;2074967;28;20217;-59
2024/02/16 04:56:45;;;;;;;5.90;4.30;;;;;21.00;99867.00;;;;2076410;28;20237;-59
2024/02/16 04:57:46;;;;;;;5.47;3.90;;;;;21.00;99865.00;;;;2069493;28;20218;-58
2024/02/16 04:58:47;;;;;;;4.65;3.22;;;;;21.00;99872.00;;;;2068563;28;20301;-59
2024/02/16 04:59:47;;;;;;;5.43;4.10;;;;;21.00;99869.00;;;;2058384;28;20219;-59